createdAt,value
2019-02-24T00:01:06.859Z,21.60
2019-02-24T00:03:36.385Z,21.50
2019-02-24T00:06:05.445Z,21.70
2019-02-24T00:08:35.521Z,21.50
2019-02-24T00:11:04.375Z,21.60
2019-02-24T00:13:33.970Z,21.50
2019-02-24T00:16:02.880Z,21.30
2019-02-24T00:18:31.696Z,21.50
2019-02-24T00:21:00.526Z,21.50
2019-02-24T00:23:29.400Z,21.60
2019-02-24T00:25:57.961Z,21.70
2019-02-24T00:28:27.135Z,22.10
2019-02-24T00:30:56.020Z,22.00
2019-02-24T00:33:24.727Z,22.20
2019-02-24T00:35:54.092Z,22.20
2019-02-24T00:38:23.107Z,22.90
2019-02-24T00:40:51.690Z,23.30
2019-02-24T00:43:20.495Z,23.10
2019-02-24T00:45:49.962Z,23.40
2019-02-24T00:48:18.744Z,23.50
2019-02-24T00:50:48.283Z,23.70
2019-02-24T00:53:16.731Z,23.90
2019-02-24T00:55:45.421Z,23.80
2019-02-24T00:58:16.447Z,23.50
2019-02-24T01:00:44.699Z,23.40
2019-02-24T01:03:13.420Z,23.30
2019-02-24T01:05:44.531Z,23.20
2019-02-24T01:08:13.392Z,23.00
2019-02-24T01:10:41.778Z,22.70
2019-02-24T01:13:11.029Z,22.40
2019-02-24T01:15:39.668Z,22.40
2019-02-24T01:18:10.239Z,22.30
2019-02-24T01:20:38.722Z,22.40
2019-02-24T01:23:09.075Z,22.50
2019-02-24T01:25:37.713Z,22.60
2019-02-24T01:28:06.446Z,22.40
2019-02-24T01:30:37.035Z,22.30
2019-02-24T01:33:05.778Z,22.50
2019-02-24T01:35:36.123Z,22.40
2019-02-24T01:38:05.747Z,22.50
2019-02-24T01:40:35.283Z,22.60
2019-02-24T01:43:04.906Z,22.70
2019-02-24T01:45:34.508Z,23.20
2019-02-24T01:48:03.848Z,23.40
2019-02-24T01:50:33.354Z,23.10
2019-02-24T01:53:02.753Z,23.20
2019-02-24T01:55:33.752Z,23.10
2019-02-24T01:58:03.510Z,23.10
2019-02-24T02:00:32.757Z,23.20
2019-02-24T02:03:01.742Z,23.30
2019-02-24T02:05:30.843Z,23.10
2019-02-24T02:08:01.458Z,23.10
2019-02-24T02:10:31.148Z,22.80
2019-02-24T02:13:00.481Z,22.90
2019-02-24T02:15:31.105Z,22.90
2019-02-24T02:18:00.453Z,23.10
2019-02-24T02:20:29.861Z,23.30
2019-02-24T02:22:58.873Z,23.30
2019-02-24T02:25:28.453Z,23.30
2019-02-24T02:27:57.750Z,23.10
2019-02-24T02:30:27.032Z,22.80
2019-02-24T02:32:56.511Z,22.70
2019-02-24T02:35:26.107Z,22.50
2019-02-24T02:37:55.937Z,22.30
2019-02-24T02:40:25.933Z,22.20
2019-02-24T02:42:56.048Z,22.00
2019-02-24T02:45:26.066Z,22.00
2019-02-24T02:47:56.127Z,21.90
2019-02-24T02:50:25.748Z,22.10
2019-02-24T02:52:55.283Z,22.00
2019-02-24T02:55:24.756Z,22.10
2019-02-24T02:57:54.359Z,22.20
2019-02-24T03:00:34.752Z,22.00
2019-02-24T03:03:05.766Z,21.80
2019-02-24T03:05:36.751Z,21.60
2019-02-24T03:08:10.745Z,21.60
2019-02-24T03:10:40.307Z,21.70
2019-02-24T03:13:09.834Z,22.30
2019-02-24T03:15:39.411Z,21.50
2019-02-24T03:18:10.750Z,21.60
2019-02-24T03:20:39.755Z,21.60
2019-02-24T03:23:10.460Z,21.30
2019-02-24T03:25:41.552Z,21.50
2019-02-24T03:28:10.745Z,21.30
2019-02-24T03:30:40.327Z,21.40
2019-02-24T03:33:12.313Z,21.40
2019-02-24T03:35:42.810Z,21.50
2019-02-24T03:38:12.307Z,21.50
2019-02-24T03:40:41.747Z,21.40
2019-02-24T03:43:11.095Z,21.40
2019-02-24T03:45:40.465Z,21.50
2019-02-24T03:48:09.824Z,21.70
2019-02-24T03:50:39.564Z,22.40
2019-02-24T03:53:10.122Z,21.90
2019-02-24T03:55:39.764Z,21.80
2019-02-24T03:58:08.757Z,22.10
2019-02-24T04:00:38.268Z,22.00
2019-02-24T04:03:07.611Z,21.90
2019-02-24T04:05:37.272Z,22.00
2019-02-24T04:08:07.452Z,22.20
2019-02-24T04:10:36.791Z,22.30
2019-02-24T04:13:05.749Z,22.40
2019-02-24T04:15:36.777Z,22.50
2019-02-24T04:18:06.321Z,22.40
2019-02-24T04:20:35.826Z,22.30
2019-02-24T04:23:06.768Z,22.10
2019-02-24T04:25:35.748Z,22.10
2019-02-24T04:28:05.527Z,22.10
2019-02-24T04:30:34.866Z,22.10
2019-02-24T04:33:04.476Z,22.10
2019-02-24T04:35:33.766Z,22.20
2019-02-24T04:38:02.801Z,22.50
2019-02-24T04:40:32.845Z,22.60
2019-02-24T04:43:02.542Z,22.70
2019-02-24T04:45:32.175Z,22.60
2019-02-24T04:48:01.777Z,22.90
2019-02-24T04:50:31.443Z,23.10
2019-02-24T04:53:00.754Z,23.20
2019-02-24T04:55:31.487Z,23.10
2019-02-24T04:58:00.826Z,23.20
2019-02-24T05:00:30.454Z,23.10
2019-02-24T05:03:02.449Z,23.10
2019-02-24T05:05:31.741Z,23.20
2019-02-24T05:08:00.894Z,24.00
2019-02-24T05:10:29.849Z,23.50
2019-02-24T05:12:59.507Z,23.50
2019-02-24T05:15:29.307Z,23.50
2019-02-24T05:18:00.453Z,23.50
2019-02-24T05:23:21.771Z,23.90
2019-02-24T05:25:51.285Z,24.20
2019-02-24T05:28:20.546Z,24.50
2019-02-24T05:30:49.844Z,25.00
2019-02-24T05:33:20.587Z,25.20
2019-02-24T05:35:50.453Z,25.20
2019-02-24T05:38:19.746Z,25.60
2019-02-24T05:40:50.508Z,26.00
2019-02-24T05:43:20.190Z,25.50
2019-02-24T05:45:49.442Z,25.60
2019-02-24T05:48:20.146Z,25.40
2019-02-24T05:50:49.454Z,25.40
2019-02-24T05:53:19.410Z,25.30
2019-02-24T05:55:48.764Z,25.30
2019-02-24T05:58:19.297Z,25.40
2019-02-24T06:00:48.827Z,25.40
2019-02-24T06:03:18.451Z,25.30
2019-02-24T06:05:48.047Z,25.40
2019-02-24T06:08:17.739Z,25.50
2019-02-24T06:10:48.538Z,25.60
2019-02-24T06:13:18.096Z,25.60
2019-02-24T06:15:48.822Z,25.40
2019-02-24T06:18:17.877Z,25.30
2019-02-24T06:20:47.456Z,25.50
2019-02-24T06:23:17.116Z,25.80
2019-02-24T06:25:46.756Z,25.80
2019-02-24T06:28:15.892Z,25.70
2019-02-24T06:30:45.836Z,25.60
2019-02-24T06:33:14.887Z,25.40
2019-02-24T06:35:45.522Z,25.10
2019-02-24T06:38:14.754Z,25.20
2019-02-24T06:40:44.253Z,25.80
2019-02-24T06:43:14.351Z,25.30
2019-02-24T06:45:43.747Z,25.40
2019-02-24T06:48:12.827Z,25.20
2019-02-24T06:50:50.072Z,25.20
2019-02-24T06:53:20.101Z,25.00
2019-02-24T06:55:50.833Z,24.70
2019-02-24T06:58:20.451Z,24.50
2019-02-24T07:00:49.806Z,24.50
2019-02-24T07:03:19.427Z,24.60
2019-02-24T07:05:50.170Z,24.70
2019-02-24T07:08:19.955Z,24.60
2019-02-24T07:10:50.503Z,24.60
2019-02-24T07:13:19.913Z,24.40
2019-02-24T07:15:49.451Z,24.50
2019-02-24T07:18:19.348Z,24.60
2019-02-24T07:20:48.770Z,24.70
2019-02-24T07:23:18.333Z,24.80
2019-02-24T07:25:47.754Z,24.50
2019-02-24T07:28:17.434Z,24.10
2019-02-24T07:30:47.542Z,23.80
2019-02-24T07:33:17.160Z,23.20
2019-02-24T07:35:46.822Z,22.80
2019-02-24T07:38:16.958Z,22.80
2019-02-24T07:40:48.020Z,22.70
2019-02-24T07:43:17.581Z,22.80
2019-02-24T07:45:47.189Z,22.70
2019-02-24T07:48:16.602Z,22.30
2019-02-24T07:50:45.956Z,22.30
2019-02-24T07:53:15.484Z,21.90
2019-02-24T07:55:44.903Z,21.50
2019-02-24T07:58:16.081Z,21.80
2019-02-24T08:00:46.209Z,21.60
2019-02-24T08:03:15.749Z,21.20
2019-02-24T08:05:46.924Z,21.10
2019-02-24T08:08:17.690Z,20.80
2019-02-24T08:10:47.746Z,20.30
2019-02-24T08:13:17.290Z,20.30
2019-02-24T08:15:46.449Z,20.10
2019-02-24T08:18:15.849Z,19.70
2019-02-24T08:20:46.089Z,19.50
2019-02-24T08:23:15.486Z,19.60
2019-02-24T08:25:44.752Z,19.70
2019-02-24T08:28:14.890Z,20.10
2019-02-24T08:30:45.812Z,19.80
2019-02-24T08:33:15.901Z,19.60
2019-02-24T08:35:45.450Z,19.50
2019-02-24T08:38:14.832Z,19.40
2019-02-24T08:40:44.622Z,19.60
2019-02-24T08:43:14.322Z,19.70
2019-02-24T08:45:44.172Z,19.30
2019-02-24T08:48:14.467Z,19.20
2019-02-24T08:50:43.973Z,19.10
2019-02-24T08:53:13.751Z,19.00
2019-02-24T08:55:43.367Z,19.10
2019-02-24T08:58:12.753Z,18.90
2019-02-24T09:00:50.711Z,18.70
2019-02-24T09:03:14.797Z,18.80
2019-02-24T09:05:44.449Z,19.00
2019-02-24T09:08:13.755Z,19.30
2019-02-24T09:10:43.894Z,19.10
2019-02-24T09:13:13.456Z,19.20
2019-02-24T09:15:43.458Z,19.10
2019-02-24T09:18:12.907Z,19.20
2019-02-24T09:20:42.459Z,19.50
2019-02-24T09:23:11.871Z,19.50
2019-02-24T09:25:41.912Z,19.40
2019-02-24T09:28:11.747Z,19.30
2019-02-24T09:30:42.106Z,19.30
2019-02-24T09:33:16.991Z,18.80
2019-02-24T09:35:48.467Z,18.60
2019-02-24T09:38:18.502Z,17.90
2019-02-24T09:40:47.999Z,17.10
2019-02-24T09:43:17.797Z,16.50
2019-02-24T09:45:47.570Z,16.00
2019-02-24T09:48:18.152Z,15.80
2019-02-24T09:50:47.682Z,15.10
2019-02-24T09:53:17.519Z,14.60
2019-02-24T09:55:49.833Z,15.40
2019-02-24T09:58:20.754Z,15.30
2019-02-24T10:00:50.802Z,14.40
2019-02-24T10:03:20.698Z,13.80
2019-02-24T10:05:53.504Z,13.20
2019-02-24T10:08:22.942Z,12.90
2019-02-24T10:10:52.526Z,13.40
2019-02-24T10:13:21.846Z,13.60
2019-02-24T10:15:52.779Z,13.60
2019-02-24T10:18:22.523Z,13.30
2019-02-24T10:20:51.831Z,12.70
2019-02-24T10:23:21.787Z,11.90
2019-02-24T10:25:51.793Z,10.80
2019-02-24T10:28:22.156Z,9.50
2019-02-24T10:30:51.941Z,8.20
2019-02-24T10:33:21.555Z,7.80
2019-02-24T10:35:52.938Z,7.60
2019-02-24T10:38:22.660Z,7.50
2019-02-24T10:40:52.356Z,7.90
2019-02-24T10:43:23.557Z,8.10
2019-02-24T10:45:53.926Z,9.10
2019-02-24T10:48:23.837Z,9.80
2019-02-24T10:50:53.521Z,10.60
2019-02-24T10:53:23.829Z,11.20
2019-02-24T10:55:54.312Z,11.70
2019-02-24T10:58:24.207Z,12.30
2019-02-24T11:00:54.160Z,12.40
2019-02-24T11:03:23.824Z,12.20
2019-02-24T11:05:53.813Z,12.30
2019-02-24T11:08:24.306Z,12.10
2019-02-24T11:10:53.875Z,12.30
2019-02-24T11:13:23.566Z,12.00
2019-02-24T11:15:53.519Z,11.60
2019-02-24T11:18:23.172Z,11.30
2019-02-24T11:20:52.807Z,11.20
2019-02-24T11:23:22.522Z,11.30
2019-02-24T11:25:51.905Z,11.70
2019-02-24T11:28:21.507Z,12.10
2019-02-24T11:30:50.815Z,12.30
2019-02-24T11:33:20.597Z,12.60
2019-02-24T11:35:50.636Z,12.60
2019-02-24T11:38:22.897Z,12.70
2019-02-24T11:40:53.581Z,12.40
2019-02-24T11:43:23.496Z,12.00
2019-02-24T11:45:54.945Z,12.00
2019-02-24T11:48:27.790Z,12.10
2019-02-24T11:50:58.096Z,12.10
2019-02-24T11:53:30.446Z,12.00
2019-02-24T11:56:00.327Z,11.80
2019-02-24T11:58:30.649Z,11.60
2019-02-24T12:01:00.522Z,11.70
2019-02-24T12:03:30.293Z,12.30
2019-02-24T12:06:01.322Z,11.60
2019-02-24T12:08:30.873Z,11.80
2019-02-24T12:11:00.454Z,11.90
2019-02-24T12:13:29.977Z,11.80
2019-02-24T12:15:59.487Z,11.60
2019-02-24T12:18:30.612Z,11.70
2019-02-24T12:20:59.898Z,11.70
2019-02-24T12:23:29.439Z,11.20
2019-02-24T12:25:59.521Z,11.20
2019-02-24T12:28:29.121Z,11.00
2019-02-24T12:30:59.922Z,9.90
2019-02-24T12:33:29.768Z,10.20
2019-02-24T12:35:59.452Z,10.40
2019-02-24T12:38:29.846Z,10.70
2019-02-24T12:40:59.522Z,11.00
2019-02-24T12:43:29.578Z,11.50
2019-02-24T12:45:58.940Z,12.20
2019-02-24T12:48:29.201Z,12.20
2019-02-24T12:51:00.265Z,12.10
2019-02-24T12:53:30.020Z,12.10
2019-02-24T12:55:59.853Z,12.00
2019-02-24T12:58:29.548Z,12.00
2019-02-24T13:01:00.945Z,12.20
2019-02-24T13:03:31.940Z,11.90
2019-02-24T13:06:01.895Z,12.00
2019-02-24T13:08:31.700Z,12.00
2019-02-24T13:11:01.013Z,11.80
2019-02-24T13:13:30.536Z,11.60
2019-02-24T13:16:03.585Z,12.40
2019-02-24T13:18:36.778Z,11.50
2019-02-24T13:21:05.928Z,11.60
2019-02-24T13:23:35.519Z,11.60
2019-02-24T13:26:07.054Z,11.70
2019-02-24T13:28:37.105Z,11.80
2019-02-24T13:31:06.514Z,11.70
2019-02-24T13:33:36.803Z,11.50
2019-02-24T13:36:06.507Z,11.70
2019-02-24T13:38:35.922Z,11.80
2019-02-24T13:41:06.231Z,11.80
2019-02-24T13:43:36.805Z,11.60
2019-02-24T13:46:06.777Z,11.70
2019-02-24T13:48:36.871Z,11.50
2019-02-24T13:51:06.466Z,11.70
2019-02-24T13:53:37.614Z,11.50
2019-02-24T13:56:08.582Z,11.70
2019-02-24T13:58:40.135Z,11.70
2019-02-24T14:01:12.182Z,11.80
2019-02-24T14:03:41.841Z,12.00
2019-02-24T14:06:11.815Z,12.00
2019-02-24T14:08:43.818Z,12.10
2019-02-24T14:11:15.520Z,12.20
2019-02-24T14:13:45.944Z,12.20
2019-02-24T14:16:16.398Z,12.30
2019-02-24T14:18:45.961Z,12.70
2019-02-24T14:21:16.602Z,12.80
2019-02-24T14:23:46.804Z,12.90
2019-02-24T14:26:16.940Z,12.90
2019-02-24T14:28:46.881Z,12.80
2019-02-24T14:31:16.963Z,13.50
2019-02-24T14:33:47.515Z,13.40
2019-02-24T14:36:17.638Z,12.70
2019-02-24T14:38:48.619Z,12.70
2019-02-24T14:41:18.891Z,12.40
2019-02-24T14:43:48.510Z,12.60
2019-02-24T14:46:18.052Z,12.50
2019-02-24T14:48:47.795Z,12.30
2019-02-24T14:51:17.589Z,12.30
2019-02-24T14:53:47.775Z,12.30
2019-02-24T14:56:18.195Z,12.40
2019-02-24T14:58:47.916Z,12.60
2019-02-24T15:01:17.637Z,12.80
2019-02-24T15:03:47.016Z,12.90
2019-02-24T15:06:17.030Z,13.00
2019-02-24T15:08:46.884Z,13.20
2019-02-24T15:11:17.235Z,13.40
2019-02-24T15:13:46.891Z,13.30
2019-02-24T15:16:16.815Z,13.30
2019-02-24T15:18:47.841Z,13.30
2019-02-24T15:21:18.136Z,13.30
2019-02-24T15:23:48.203Z,13.40
2019-02-24T15:26:18.011Z,13.40
2019-02-24T15:28:47.542Z,13.50
2019-02-24T15:31:17.671Z,13.80
2019-02-24T15:33:47.602Z,13.80
2019-02-24T15:36:17.799Z,13.70
2019-02-24T15:38:47.740Z,13.70
2019-02-24T15:41:17.527Z,13.70
2019-02-24T15:43:46.816Z,13.80
2019-02-24T15:46:16.895Z,13.80
2019-02-24T15:48:46.583Z,13.80
2019-02-24T15:51:16.906Z,14.10
2019-02-24T15:53:46.971Z,14.30
2019-02-24T15:56:16.555Z,14.50
2019-02-24T15:58:45.993Z,14.70
2019-02-24T16:01:16.025Z,14.70
2019-02-24T16:03:45.634Z,14.80
2019-02-24T16:06:15.911Z,14.90
2019-02-24T16:08:45.545Z,15.10
2019-02-24T16:11:15.818Z,14.90
2019-02-24T16:13:45.874Z,15.00
2019-02-24T16:16:15.825Z,15.20
2019-02-24T16:18:45.870Z,15.30
2019-02-24T16:21:15.822Z,15.40
2019-02-24T16:23:45.769Z,15.50
2019-02-24T16:26:15.855Z,15.60
2019-02-24T16:28:45.564Z,15.80
2019-02-24T16:31:15.524Z,15.90
2019-02-24T16:33:45.303Z,16.20
2019-02-24T16:36:15.941Z,16.30
2019-02-24T16:38:45.591Z,16.40
2019-02-24T16:41:15.890Z,16.40
2019-02-24T16:43:46.885Z,16.60
2019-02-24T16:46:16.660Z,16.70
2019-02-24T16:48:45.927Z,16.90
2019-02-24T16:51:15.594Z,16.70
2019-02-24T16:53:46.917Z,16.70
2019-02-24T16:56:17.991Z,16.60
2019-02-24T16:58:47.923Z,16.50
2019-02-24T17:01:18.054Z,16.50
2019-02-24T17:03:47.620Z,16.60
2019-02-24T17:06:19.453Z,16.50
2019-02-24T17:08:52.066Z,16.50
2019-02-24T17:11:20.836Z,16.50
2019-02-24T17:13:51.017Z,16.40
2019-02-24T17:16:21.104Z,16.40
2019-02-24T17:18:52.907Z,16.30
2019-02-24T17:21:22.510Z,16.10
2019-02-24T17:23:53.697Z,16.00
2019-02-24T17:26:24.162Z,16.00
2019-02-24T17:28:54.051Z,16.10
2019-02-24T17:31:28.332Z,16.20
2019-02-24T17:33:54.908Z,16.30
2019-02-24T17:36:24.580Z,16.40
2019-02-24T17:38:54.083Z,16.70
2019-02-24T17:41:23.456Z,16.80
2019-02-24T17:43:55.796Z,16.90
2019-02-24T17:46:25.852Z,17.10
2019-02-24T17:48:55.994Z,17.40
2019-02-24T17:51:25.911Z,17.60
2019-02-24T17:53:55.753Z,17.60
2019-02-24T17:56:25.560Z,18.00
2019-02-24T17:58:59.915Z,18.20
2019-02-24T18:01:29.816Z,18.30
2019-02-24T18:03:59.707Z,18.60
2019-02-24T18:06:30.819Z,18.50
2019-02-24T18:09:00.933Z,18.60
2019-02-24T18:11:30.580Z,18.80
2019-02-24T18:14:00.993Z,19.00
2019-02-24T18:22:14.889Z,18.80
2019-02-24T18:24:45.529Z,19.00
2019-02-24T18:27:17.200Z,18.90
2019-02-24T18:29:46.885Z,19.10
2019-02-24T18:32:16.586Z,19.60
2019-02-24T18:34:49.480Z,19.10
2019-02-24T18:37:18.909Z,19.00
2019-02-24T18:39:48.813Z,18.90
2019-02-24T18:42:19.878Z,18.90
2019-02-24T18:44:49.917Z,18.90
2019-02-24T18:47:19.491Z,19.00
2019-02-24T18:49:51.252Z,19.00
2019-02-24T18:52:20.822Z,19.30
2019-02-24T18:54:51.845Z,19.00
2019-02-24T18:57:21.911Z,18.90
2019-02-24T18:59:52.821Z,18.90
2019-02-24T19:02:22.972Z,18.60
2019-02-24T19:04:53.074Z,18.50
2019-02-24T19:07:24.366Z,18.30
2019-02-24T19:09:53.857Z,18.30
2019-02-24T19:12:23.549Z,18.30
2019-02-24T19:14:53.123Z,18.30
2019-02-24T19:17:24.881Z,18.00
2019-02-24T19:19:54.544Z,18.10
2019-02-24T19:22:23.778Z,17.90
2019-02-24T19:24:53.811Z,18.10
2019-02-24T19:27:23.843Z,17.90
2019-02-24T19:29:55.098Z,17.90
2019-02-24T19:32:24.521Z,18.10
2019-02-24T19:34:54.197Z,18.40
2019-02-24T19:37:24.491Z,18.20
2019-02-24T19:39:55.129Z,18.20
2019-02-24T19:42:25.807Z,18.50
2019-02-24T19:47:47.875Z,18.40
2019-02-24T19:50:18.847Z,18.50
2019-02-24T19:52:48.508Z,18.40
2019-02-24T19:55:19.963Z,18.60
2019-02-24T19:57:49.456Z,18.80
2019-02-24T20:00:27.124Z,18.80
2019-02-24T20:02:57.861Z,18.80
2019-02-24T20:05:28.769Z,18.80
2019-02-24T20:07:58.820Z,18.90
2019-02-24T20:10:29.781Z,19.00
2019-02-24T20:12:59.514Z,19.10
2019-02-24T20:15:29.631Z,19.20
2019-02-24T20:17:59.875Z,19.30
2019-02-24T20:20:29.511Z,19.40
2019-02-24T20:22:59.907Z,19.30
2019-02-24T20:25:30.629Z,19.40
2019-02-24T20:28:00.048Z,19.30
2019-02-24T20:30:34.169Z,19.30
2019-02-24T20:33:03.840Z,19.50
2019-02-24T20:35:34.474Z,19.40
2019-02-24T20:38:03.882Z,19.30
2019-02-24T20:40:35.237Z,19.40
2019-02-24T20:43:06.696Z,19.30
2019-02-24T20:45:37.475Z,19.50
2019-02-24T20:48:06.935Z,19.20
2019-02-24T20:50:36.889Z,19.10
2019-02-24T20:53:06.559Z,19.20
2019-02-24T20:55:38.420Z,19.20
2019-02-24T20:58:08.002Z,19.20
2019-02-24T21:00:46.723Z,19.20
2019-02-24T21:03:17.992Z,19.20
2019-02-24T21:05:48.957Z,19.20
2019-02-24T21:08:20.878Z,19.20
2019-02-24T21:10:51.931Z,19.20
2019-02-24T21:13:21.874Z,19.20
2019-02-24T21:15:51.541Z,19.20
2019-02-24T21:18:23.775Z,19.30
2019-02-24T21:20:53.981Z,19.20
2019-02-24T21:23:24.513Z,19.40
2019-02-24T21:25:55.756Z,19.40
2019-02-24T21:28:25.513Z,19.60
2019-02-24T21:30:55.020Z,19.40
2019-02-24T21:33:25.515Z,19.50
2019-02-24T21:35:54.861Z,19.60
2019-02-24T21:38:24.512Z,19.70
2019-02-24T21:40:55.535Z,19.70
2019-02-24T21:43:25.740Z,19.80
2019-02-24T21:45:55.591Z,20.30
2019-02-24T21:48:24.926Z,19.90
2019-02-24T21:50:54.532Z,19.90
2019-02-24T21:53:26.373Z,20.10
2019-02-24T21:55:56.469Z,20.10
2019-02-24T21:58:25.960Z,20.00
2019-02-24T22:00:56.462Z,20.20
2019-02-24T22:03:26.131Z,20.10
2019-02-24T22:05:58.827Z,19.90
2019-02-24T22:08:28.514Z,19.90
2019-02-24T22:10:58.853Z,19.90
2019-02-24T22:13:28.617Z,19.80
2019-02-24T22:15:59.833Z,19.80
2019-02-24T22:18:30.120Z,19.80
2019-02-24T22:20:59.795Z,19.70
2019-02-24T22:23:29.944Z,19.80
2019-02-24T22:25:59.828Z,19.90
2019-02-24T22:28:29.353Z,19.90
2019-02-24T22:30:58.891Z,20.10
2019-02-24T22:33:28.577Z,20.10
2019-02-24T22:35:58.180Z,20.10
2019-02-24T22:38:27.806Z,20.30
2019-02-24T22:40:57.878Z,20.20
2019-02-24T22:43:27.717Z,20.20
2019-02-24T22:45:57.814Z,20.30
2019-02-24T22:48:28.829Z,20.30
2019-02-24T22:50:58.385Z,20.30
2019-02-24T22:53:27.754Z,20.70
2019-02-24T22:55:57.789Z,20.20
2019-02-24T22:58:27.483Z,20.30
2019-02-24T23:01:02.067Z,20.40
2019-02-24T23:03:34.783Z,20.60
2019-02-24T23:06:03.953Z,20.90
2019-02-24T23:08:36.261Z,20.80
2019-02-24T23:11:05.948Z,21.00
2019-02-24T23:13:39.175Z,20.90
2019-02-24T23:16:08.373Z,20.80
2019-02-24T23:18:38.043Z,20.70
2019-02-24T23:21:09.089Z,21.00
2019-02-24T23:23:38.458Z,20.90
2019-02-24T23:26:08.471Z,20.70
2019-02-24T23:28:37.809Z,20.60
2019-02-24T23:31:09.147Z,20.80
2019-02-24T23:33:41.631Z,21.20
2019-02-24T23:36:12.260Z,20.90
2019-02-24T23:38:41.776Z,21.00
2019-02-24T23:41:12.740Z,21.00
2019-02-24T23:43:45.782Z,20.90
2019-02-24T23:46:16.455Z,20.70
2019-02-24T23:48:45.915Z,20.70
2019-02-24T23:51:15.841Z,20.70
2019-02-24T23:53:45.533Z,20.80
2019-02-24T23:56:14.842Z,20.90
2019-02-24T23:58:44.454Z,21.00
